Time;durP1;ratioP1;P1;durP2;ratioP2;P2;SDS_P1;SDS_P2;PMS_P1;PMS_P2;Temp;Humidity;BMP_temperature;BMP_pressure;BME280_temperature;BME280_humidity;BME280_pressure;Samples;Min_cycle;Max_cycle;Signal;HPM_P1;HPM_P2
2023/06/07 00:01:07;;;;;;;1.57;1.47;;;19.70;60.90;18.70;96516.00;;;;6096730;23;20541;-83
2023/06/07 00:03:37;;;;;;;3.57;1.93;;;19.60;60.30;18.70;96518.00;;;;6096843;23;20205;-83
2023/06/07 00:06:08;;;;;;;2.17;2.07;;;19.60;60.40;18.60;96517.00;;;;6111281;23;20174;-83
2023/06/07 00:08:36;;;;;;;2.03;1.93;;;19.60;60.60;18.60;96513.00;;;;6126026;23;20542;-83
2023/06/07 00:11:04;;;;;;;2.70;1.80;;;19.50;60.50;18.50;96516.00;;;;6125913;23;20513;-84
2023/06/07 00:13:32;;;;;;;2.23;2.03;;;19.50;60.50;18.50;96505.00;;;;6100692;23;20678;-84
2023/06/07 00:16:00;;;;;;;1.90;1.80;;;19.40;60.60;18.50;96506.00;;;;6124864;23;20178;-83
2023/06/07 00:18:29;;;;;;;1.93;1.83;;;19.40;60.90;18.40;96492.00;;;;6099994;23;20206;-83
2023/06/07 00:20:57;;;;;;;2.40;1.67;;;19.40;61.30;18.40;96496.00;;;;6124577;23;20570;-82
2023/06/07 00:23:28;;;;;;;2.30;2.10;;;19.30;61.40;18.40;96493.00;;;;6124615;23;20226;-83
2023/06/07 00:25:56;;;;;;;1.90;1.80;;;19.30;61.80;18.40;96489.00;;;;6124835;23;20173;-83
2023/06/07 00:28:24;;;;;;;1.80;1.70;;;19.30;61.80;18.40;96491.00;;;;6123541;23;20174;-83
2023/06/07 00:30:51;;;;;;;2.17;1.83;;;19.30;61.70;18.40;96495.00;;;;6124231;23;20265;-84
2023/06/07 00:33:20;;;;;;;1.70;1.60;;;19.30;61.70;18.40;96490.00;;;;6124407;23;20214;-83
2023/06/07 00:35:48;;;;;;;1.60;1.50;;;19.30;61.70;18.30;96487.00;;;;6125470;23;20242;-83
2023/06/07 00:38:16;;;;;;;1.97;1.87;;;19.20;61.60;18.30;96484.00;;;;6099472;23;20195;-83
2023/06/07 00:40:44;;;;;;;1.70;1.60;;;19.20;61.60;18.30;96496.00;;;;6100309;23;20167;-83
2023/06/07 00:43:12;;;;;;;1.53;1.43;;;19.20;61.70;18.30;96492.00;;;;6125267;23;20191;-84
2023/06/07 00:45:40;;;;;;;1.67;1.57;;;19.20;61.60;18.20;96478.00;;;;6125642;23;20231;-83
2023/06/07 00:48:08;;;;;;;1.90;1.80;;;19.20;61.60;18.20;96484.00;;;;6099922;23;20166;-84
2023/06/07 00:50:36;;;;;;;1.80;1.70;;;19.10;61.40;18.20;96480.00;;;;6077077;23;20210;-83
2023/06/07 00:53:05;;;;;;;2.47;1.70;;;19.10;61.40;18.10;96478.00;;;;6099508;23;20175;-83
2023/06/07 00:55:33;;;;;;;2.03;1.90;;;19.10;61.40;18.10;96480.00;;;;6100731;23;20653;-83
2023/06/07 00:58:02;;;;;;;1.90;1.80;;;19.00;61.30;18.00;96475.00;;;;6100495;23;20249;-83
2023/06/07 01:00:31;;;;;;;1.60;1.50;;;19.00;61.40;18.00;96480.00;;;;6100026;23;20249;-83
2023/06/07 01:02:58;;;;;;;2.00;1.90;;;18.90;61.40;17.90;96474.00;;;;6125153;23;20232;-83
2023/06/07 01:05:26;;;;;;;1.63;1.53;;;18.90;61.40;17.90;96469.00;;;;6124880;23;20257;-82
2023/06/07 01:07:54;;;;;;;1.80;1.70;;;18.80;61.40;17.80;96472.00;;;;6123967;23;20179;-83
2023/06/07 01:10:22;;;;;;;2.23;2.13;;;18.80;61.50;17.80;96473.00;;;;6123973;23;20171;-83
2023/06/07 01:12:54;;;;;;;1.80;1.70;;;18.70;61.60;17.80;96472.00;;;;6075948;23;20179;-83
2023/06/07 01:15:25;;;;;;;1.63;1.53;;;18.70;61.80;17.70;96478.00;;;;6125000;23;20159;-83
2023/06/07 01:17:54;;;;;;;3.97;1.77;;;18.70;61.90;17.70;96471.00;;;;6123032;23;20189;-81
2023/06/07 01:20:29;;;;;;;1.93;1.83;;;18.60;61.90;17.70;96474.00;;;;6123924;23;20242;-83
2023/06/07 01:23:01;;;;;;;2.00;1.90;;;18.60;62.10;17.60;96473.00;;;;6125312;23;20221;-81
2023/06/07 01:25:30;;;;;;;2.03;1.93;;;18.60;62.30;17.60;96463.00;;;;6124696;23;20257;-83
2023/06/07 01:27:58;;;;;;;2.10;2.00;;;18.60;62.40;17.60;96462.00;;;;6125842;23;20170;-83
2023/06/07 01:30:31;;;;;;;2.27;2.07;;;18.50;62.40;17.50;96467.00;;;;6099278;23;20225;-83
2023/06/07 01:33:01;;;;;;;3.40;2.20;;;18.50;62.60;17.50;96460.00;;;;6125663;23;20175;-83
2023/06/07 01:35:30;;;;;;;1.83;1.73;;;18.40;62.60;17.50;96464.00;;;;6100387;23;20233;-82
2023/06/07 01:37:58;;;;;;;2.10;2.00;;;18.40;62.70;17.40;96462.00;;;;6126407;23;20258;-83
2023/06/07 01:40:31;;;;;;;2.20;2.10;;;18.40;62.80;17.40;96459.00;;;;6126569;23;20170;-83
2023/06/07 01:43:02;;;;;;;2.07;1.97;;;18.30;62.80;17.40;96455.00;;;;6125297;23;20201;-82
2023/06/07 01:45:30;;;;;;;2.03;1.93;;;18.30;63.00;17.30;96452.00;;;;6100731;23;20682;-83
2023/06/07 01:47:57;;;;;;;2.00;1.90;;;18.30;63.10;17.30;96459.00;;;;6125885;23;20190;-83
2023/06/07 01:50:25;;;;;;;2.00;1.90;;;18.30;64.10;17.30;96458.00;;;;6125828;23;20181;-82
2023/06/07 01:52:52;;;;;;;2.00;1.90;;;18.20;63.40;17.30;96457.00;;;;6100011;23;20175;-83
2023/06/07 01:55:21;;;;;;;2.00;1.90;;;18.20;63.40;17.30;96452.00;;;;6101585;23;20171;-83
2023/06/07 01:58:01;;;;;;;1.97;1.87;;;18.20;63.40;17.30;96454.00;;;;6135341;23;20218;-82
2023/06/07 02:00:36;;;;;;;2.03;1.93;;;18.20;63.50;17.20;96450.00;;;;6153292;23;20147;-82
2023/06/07 02:03:12;;;;;;;1.97;1.87;;;18.20;63.20;17.20;96443.00;;;;6127942;23;20181;-82
2023/06/07 02:05:48;;;;;;;1.90;1.80;;;18.20;63.10;17.20;96449.00;;;;6122753;23;20187;-82
2023/06/07 02:08:29;;;;;;;1.83;1.73;;;18.10;63.00;17.10;96455.00;;;;6099160;23;20155;-82
2023/06/07 02:10:58;;;;;;;1.97;1.87;;;18.10;62.90;17.10;96445.00;;;;6123395;23;20158;-81
2023/06/07 02:13:28;;;;;;;1.70;1.60;;;18.10;62.80;17.10;96449.00;;;;6121628;23;20234;-81
2023/06/07 02:15:57;;;;;;;2.10;2.00;;;18.10;62.90;17.10;96442.00;;;;6121796;23;20152;-81
2023/06/07 02:18:25;;;;;;;2.37;2.20;;;18.00;62.90;17.00;96445.00;;;;6121390;23;20187;-82
2023/06/07 02:20:53;;;;;;;2.40;2.00;;;18.00;63.00;17.00;96446.00;;;;6102959;23;20186;-83
2023/06/07 02:23:22;;;;;;;1.80;1.70;;;18.00;63.20;17.10;96444.00;;;;6094505;23;20203;-83
2023/06/07 02:25:50;;;;;;;2.03;1.93;;;18.00;63.50;17.10;96448.00;;;;6094102;23;20179;-84
2023/06/07 02:28:19;;;;;;;2.10;2.00;;;18.00;63.50;17.10;96443.00;;;;6095033;23;20203;-83
2023/06/07 02:30:46;;;;;;;2.10;1.97;;;18.00;63.70;17.10;96447.00;;;;6096505;23;20202;-84
2023/06/07 02:33:16;;;;;;;1.80;1.70;;;18.00;63.60;17.00;96455.00;;;;6093600;23;20592;-83
2023/06/07 02:35:45;;;;;;;1.83;1.73;;;18.00;63.40;17.00;96456.00;;;;6095255;23;20513;-83
2023/06/07 02:38:14;;;;;;;1.97;1.87;;;18.00;63.30;17.00;96459.00;;;;6095632;23;20187;-83
2023/06/07 02:40:43;;;;;;;1.97;1.87;;;18.00;63.10;17.00;96460.00;;;;6094038;23;20182;-83
2023/06/07 02:43:10;;;;;;;2.37;2.17;;;17.90;63.10;16.90;96458.00;;;;6070942;23;20178;-84
2023/06/07 02:45:37;;;;;;;2.47;2.10;;;17.90;63.00;16.90;96463.00;;;;6071263;23;20179;-83
2023/06/07 02:48:06;;;;;;;2.13;2.03;;;17.90;62.90;16.90;96468.00;;;;6096112;23;20702;-83
2023/06/07 02:50:35;;;;;;;2.13;2.03;;;17.90;62.90;16.80;96462.00;;;;6098373;23;20258;-84
2023/06/07 02:53:03;;;;;;;2.10;2.00;;;17.80;62.90;16.80;96452.00;;;;6101385;23;20200;-83
2023/06/07 02:55:30;;;;;;;2.27;2.07;;;17.80;63.00;16.80;96452.00;;;;6098940;23;20199;-84
2023/06/07 02:57:59;;;;;;;2.63;2.30;;;17.80;63.30;16.80;96455.00;;;;6097591;23;20187;-84
2023/06/07 03:00:27;;;;;;;2.43;2.10;;;17.80;63.60;16.80;96460.00;;;;6097644;23;20208;-83
2023/06/07 03:02:54;;;;;;;2.10;2.00;;;17.80;63.50;16.80;96459.00;;;;6095654;23;20563;-84
2023/06/07 03:05:22;;;;;;;2.43;2.23;;;17.80;63.50;16.80;96465.00;;;;6102304;23;20225;-84
2023/06/07 03:07:52;;;;;;;2.40;2.30;;;17.70;63.30;16.70;96465.00;;;;6124226;23;20253;-84
2023/06/07 03:10:20;;;;;;;2.63;2.23;;;17.70;63.30;16.70;96459.00;;;;6124440;23;20177;-83
2023/06/07 03:12:47;;;;;;;2.30;2.10;;;17.70;63.10;16.60;96468.00;;;;6075247;23;20178;-84
2023/06/07 03:15:14;;;;;;;2.00;1.90;;;17.60;63.10;16.60;96472.00;;;;6099872;23;20205;-83
2023/06/07 03:17:43;;;;;;;1.97;1.77;;;17.60;63.10;16.60;96479.00;;;;6125256;23;20181;-83
2023/06/07 03:20:11;;;;;;;2.23;2.03;;;17.60;63.10;16.50;96469.00;;;;6125427;23;20661;-84
2023/06/07 03:22:39;;;;;;;2.07;1.97;;;17.60;63.20;16.50;96473.00;;;;6101082;23;20171;-84
2023/06/07 03:25:09;;;;;;;2.40;2.20;;;17.50;63.20;16.50;96475.00;;;;6101292;23;20257;-83
2023/06/07 03:27:38;;;;;;;1.97;1.87;;;17.50;63.50;16.50;96476.00;;;;6126279;23;20175;-81
2023/06/07 03:30:06;;;;;;;4.63;1.97;;;17.50;63.40;16.40;96479.00;;;;6101945;23;20179;-83
2023/06/07 03:32:34;;;;;;;1.90;1.80;;;17.50;63.30;16.40;96484.00;;;;6127282;23;20175;-83
2023/06/07 03:35:02;;;;;;;2.27;2.10;;;17.40;63.30;16.40;96487.00;;;;6126308;23;20209;-84
2023/06/07 03:37:29;;;;;;;2.27;2.17;;;17.40;63.30;16.30;96488.00;;;;6126854;23;20166;-83
2023/06/07 03:39:57;;;;;;;2.13;1.93;;;17.40;63.40;16.30;96474.00;;;;6126300;23;20202;-83
2023/06/07 03:42:25;;;;;;;1.97;1.87;;;17.30;63.60;16.30;96486.00;;;;6127132;23;20213;-85
2023/06/07 03:44:52;;;;;;;2.47;1.97;;;17.30;63.60;16.30;96490.00;;;;6126819;23;20286;-84
2023/06/07 03:47:20;;;;;;;3.03;1.93;;;17.30;63.70;16.20;96485.00;;;;6126105;23;20683;-83
2023/06/07 03:49:47;;;;;;;3.13;2.33;;;17.30;63.90;16.20;96496.00;;;;6076792;23;20170;-83
2023/06/07 03:52:14;;;;;;;2.40;2.30;;;17.30;64.10;16.20;96489.00;;;;6126277;23;20586;-82
2023/06/07 03:54:42;;;;;;;3.23;2.60;;;17.20;64.30;16.20;96496.00;;;;6100552;23;20199;-83
2023/06/07 03:57:10;;;;;;;2.70;2.50;;;17.20;64.50;16.20;96491.00;;;;6126091;23;20195;-83
2023/06/07 03:59:39;;;;;;;2.20;2.10;;;17.20;64.60;16.20;96496.00;;;;6100450;23;20171;-83
2023/06/07 04:02:07;;;;;;;2.37;2.27;;;17.20;64.70;16.20;96495.00;;;;6125595;23;20266;-83
2023/06/07 04:04:34;;;;;;;2.13;2.03;;;17.20;64.80;16.20;96500.00;;;;6124999;23;20206;-83
2023/06/07 04:07:02;;;;;;;2.73;2.53;;;17.20;65.00;16.20;96498.00;;;;6094037;23;20258;-83
2023/06/07 04:09:29;;;;;;;2.63;2.30;;;17.20;65.20;16.20;96500.00;;;;6095457;23;20206;-83
2023/06/07 04:11:57;;;;;;;2.67;2.47;;;17.10;65.30;16.20;96502.00;;;;6096375;23;20172;-84
2023/06/07 04:14:24;;;;;;;3.40;3.10;;;17.20;65.60;16.20;96505.00;;;;6095803;23;20222;-84
2023/06/07 04:16:53;;;;;;;2.60;2.50;;;17.10;65.80;16.30;96499.00;;;;6096129;23;20254;-84
2023/06/07 04:19:21;;;;;;;2.70;2.60;;;17.10;66.10;16.30;96514.00;;;;6095513;23;20168;-84
2023/06/07 04:21:50;;;;;;;2.97;2.77;;;17.20;66.40;16.30;96511.00;;;;6097232;23;20571;-84
2023/06/07 04:24:19;;;;;;;2.73;2.63;;;17.20;66.50;16.30;96507.00;;;;6097134;23;20207;-84
2023/06/07 04:26:47;;;;;;;2.37;2.17;;;17.20;66.60;16.40;96518.00;;;;6097289;23;20182;-83
2023/06/07 04:29:15;;;;;;;2.90;2.70;;;17.20;66.70;16.40;96516.00;;;;6095099;23;20179;-84
2023/06/07 04:31:43;;;;;;;2.63;2.47;;;17.20;66.80;16.40;96516.00;;;;6072166;23;20180;-84
2023/06/07 04:34:17;;;;;;;2.97;2.67;;;17.30;67.00;16.50;96514.00;;;;6097041;23;20199;-84
2023/06/07 04:36:49;;;;;;;3.20;3.00;;;17.30;67.10;16.50;96510.00;;;;6097170;23;20251;-83
2023/06/07 04:39:18;;;;;;;2.80;2.63;;;17.30;67.20;16.50;96519.00;;;;6097401;23;20222;-82
2023/06/07 04:41:46;;;;;;;2.53;2.43;;;17.30;67.60;16.50;96518.00;;;;6098452;23;20262;-83
2023/06/07 04:44:15;;;;;;;2.60;2.50;;;17.40;67.50;16.60;96531.00;;;;6097462;23;20605;-83
2023/06/07 04:46:43;;;;;;;2.90;2.70;;;17.40;67.50;16.70;96528.00;;;;6096438;23;20187;-83
2023/06/07 04:49:17;;;;;;;2.73;2.50;;;17.50;67.60;16.70;96536.00;;;;6098828;23;20457;-84
2023/06/07 04:51:48;;;;;;;2.97;2.77;;;17.50;67.60;16.80;96526.00;;;;6099545;23;20175;-84
2023/06/07 04:54:16;;;;;;;3.13;2.93;;;17.60;67.60;16.80;96528.00;;;;6099039;23;20199;-82
2023/06/07 04:56:44;;;;;;;2.70;2.53;;;17.70;67.70;16.90;96526.00;;;;6096224;23;20206;-84
2023/06/07 04:59:11;;;;;;;3.00;2.80;;;17.70;67.70;17.00;96530.00;;;;6093634;23;20246;-83
2023/06/07 05:01:41;;;;;;;3.63;3.40;;;17.80;68.50;17.00;96528.00;;;;6093712;23;20262;-82
2023/06/07 05:04:08;;;;;;;2.93;2.73;;;17.80;68.00;17.10;96531.00;;;;6092725;23;20199;-84
2023/06/07 05:06:38;;;;;;;3.33;3.13;;;17.90;67.90;17.10;96528.00;;;;6114887;23;20249;-84
2023/06/07 05:09:05;;;;;;;3.47;3.17;;;17.90;67.90;17.20;96526.00;;;;6124079;23;20170;-83
2023/06/07 05:11:35;;;;;;;2.87;2.67;;;18.00;68.10;17.20;96527.00;;;;6124221;23;20194;-84
2023/06/07 05:14:02;;;;;;;3.07;2.87;;;18.00;68.00;17.20;96526.00;;;;6099162;23;20652;-84
2023/06/07 05:16:32;;;;;;;3.33;3.10;;;18.00;67.90;17.30;96527.00;;;;6125490;23;20254;-84
2023/06/07 05:19:00;;;;;;;2.93;2.73;;;18.10;68.00;17.30;96519.00;;;;6125044;23;20171;-85
2023/06/07 05:21:28;;;;;;;2.90;2.70;;;18.10;68.00;17.40;96518.00;;;;6100802;23;20182;-84
2023/06/07 05:23:57;;;;;;;3.50;3.20;;;18.20;68.20;17.50;96526.00;;;;6099966;23;20201;-84
2023/06/07 05:26:24;;;;;;;3.83;3.50;;;18.20;68.30;17.50;96523.00;;;;6100473;23;20266;-84
2023/06/07 05:28:52;;;;;;;2.97;2.77;;;18.30;68.20;17.60;96533.00;;;;6126085;23;20559;-83
2023/06/07 05:31:20;;;;;;;3.13;2.93;;;18.30;68.30;17.60;96535.00;;;;6125345;23;20242;-83
2023/06/07 05:33:47;;;;;;;3.53;3.13;;;18.40;68.40;17.70;96529.00;;;;6125906;23;20278;-83
2023/06/07 05:36:15;;;;;;;3.33;3.13;;;18.40;68.50;17.70;96544.00;;;;6076499;23;20217;-83
2023/06/07 05:38:42;;;;;;;2.90;2.70;;;18.50;68.60;17.80;96537.00;;;;6100209;23;20205;-81
2023/06/07 05:41:11;;;;;;;3.37;3.17;;;18.50;68.60;17.80;96543.00;;;;6124605;23;20563;-83
2023/06/07 05:43:38;;;;;;;2.90;2.80;;;18.60;68.70;17.90;96543.00;;;;6124867;23;20269;-81
2023/06/07 05:46:05;;;;;;;3.40;3.20;;;18.60;68.70;18.00;96542.00;;;;6099473;23;20202;-83
2023/06/07 05:48:34;;;;;;;3.50;3.30;;;18.70;68.90;18.00;96541.00;;;;6125691;23;20290;-82
2023/06/07 05:51:01;;;;;;;3.40;3.20;;;18.70;68.90;18.10;96539.00;;;;6124030;23;20254;-83
2023/06/07 05:53:29;;;;;;;3.40;3.20;;;18.80;68.80;18.20;96541.00;;;;6125044;23;20270;-83
2023/06/07 05:55:56;;;;;;;3.53;3.23;;;18.80;68.80;18.20;96538.00;;;;6098262;23;20827;-82
2023/06/07 05:58:26;;;;;;;3.67;3.37;;;18.90;68.90;18.30;96543.00;;;;6097670;23;20202;-83
2023/06/07 06:00:54;;;;;;;3.20;2.90;;;19.00;69.20;18.40;96536.00;;;;6122784;23;20170;-83
2023/06/07 06:03:21;;;;;;;3.20;3.00;;;19.00;69.10;18.40;96540.00;;;;6098465;23;20217;-81
2023/06/07 06:05:48;;;;;;;3.43;3.10;;;19.10;69.10;18.50;96541.00;;;;6124515;23;20701;-83
2023/06/07 06:08:16;;;;;;;3.50;3.20;;;19.20;69.30;18.50;96545.00;;;;6099283;23;20177;-83
2023/06/07 06:10:45;;;;;;;3.63;3.33;;;19.20;69.40;18.60;96543.00;;;;6124937;23;20167;-83
2023/06/07 06:13:13;;;;;;;3.37;3.17;;;19.30;69.50;18.70;96545.00;;;;6124887;23;20689;-81
2023/06/07 06:15:41;;;;;;;3.80;3.50;;;19.30;69.60;18.80;96546.00;;;;6125004;23;20237;-84
2023/06/07 06:18:10;;;;;;;4.13;3.87;;;19.40;69.70;18.80;96552.00;;;;6125028;23;20250;-82
2023/06/07 06:20:38;;;;;;;4.83;4.00;;;19.50;69.40;18.90;96547.00;;;;6124926;23;20202;-84
2023/06/07 06:23:07;;;;;;;4.37;3.97;;;19.60;69.40;19.00;96543.00;;;;6099548;23;20234;-83
2023/06/07 06:25:36;;;;;;;4.20;3.90;;;19.60;69.30;19.00;96547.00;;;;6076285;23;20670;-83
2023/06/07 06:28:04;;;;;;;3.80;3.30;;;19.70;69.40;19.10;96551.00;;;;6125211;23;20225;-84
2023/06/07 06:30:32;;;;;;;4.27;3.87;;;19.70;69.40;19.20;96553.00;;;;6075537;23;20176;-83
2023/06/07 06:33:02;;;;;;;4.00;3.80;;;19.80;69.50;19.30;96552.00;;;;6099415;23;20230;-82
2023/06/07 06:35:29;;;;;;;4.43;3.70;;;19.90;69.70;19.30;96556.00;;;;6075954;23;20862;-83
2023/06/07 06:37:56;;;;;;;3.90;3.60;;;19.90;69.50;19.40;96554.00;;;;6124535;23;20189;-83
2023/06/07 06:40:23;;;;;;;3.70;3.50;;;20.00;69.60;19.50;96554.00;;;;6124223;23;20233;-84
2023/06/07 06:42:51;;;;;;;3.97;3.60;;;20.10;69.60;19.60;96557.00;;;;6099134;23;20564;-84
2023/06/07 06:45:18;;;;;;;4.53;4.07;;;20.20;69.70;19.70;96560.00;;;;6124507;23;20682;-84
2023/06/07 06:47:46;;;;;;;3.97;3.67;;;20.20;69.70;19.70;96570.00;;;;6074901;23;20175;-84
2023/06/07 06:50:15;;;;;;;4.50;4.10;;;20.30;69.70;19.80;96560.00;;;;6124895;23;20577;-83
2023/06/07 06:52:43;;;;;;;4.00;3.30;;;20.40;69.80;19.90;96566.00;;;;6097684;23;20229;-85
2023/06/07 06:55:10;;;;;;;3.60;3.30;;;20.50;69.90;20.00;96571.00;;;;6122635;23;20294;-84
2023/06/07 06:57:38;;;;;;;4.47;4.17;;;20.60;70.00;20.10;96565.00;;;;6124095;23;20253;-84
2023/06/07 07:00:09;;;;;;;4.00;3.60;;;20.70;69.90;20.20;96577.00;;;;6098073;23;20612;-83
2023/06/07 07:02:37;;;;;;;4.53;3.40;;;20.80;69.90;20.40;96567.00;;;;6123311;23;20822;-82
2023/06/07 07:05:05;;;;;;;4.27;3.97;;;20.90;69.80;20.50;96572.00;;;;6124402;23;20247;-82
2023/06/07 07:07:35;;;;;;;4.63;4.17;;;21.00;69.50;20.60;96567.00;;;;6126118;23;20172;-83
2023/06/07 07:10:02;;;;;;;5.17;4.07;;;21.10;69.20;20.70;96567.00;;;;6100273;23;20192;-82
2023/06/07 07:12:29;;;;;;;4.30;4.00;;;21.20;69.00;20.80;96574.00;;;;6125099;23;20197;-83
2023/06/07 07:14:57;;;;;;;4.27;3.97;;;21.40;68.80;20.90;96566.00;;;;6123458;23;20190;-83
2023/06/07 07:17:24;;;;;;;4.10;3.80;;;21.50;68.60;21.00;96578.00;;;;6075171;23;20557;-83
2023/06/07 07:19:53;;;;;;;4.47;4.17;;;21.60;68.60;21.10;96577.00;;;;6126400;23;20284;-82
2023/06/07 07:22:20;;;;;;;4.27;3.97;;;21.70;68.50;21.30;96573.00;;;;6101580;23;20167;-83
2023/06/07 07:24:49;;;;;;;4.27;3.93;;;21.80;68.40;21.40;96575.00;;;;6123611;23;20288;-82
2023/06/07 07:27:21;;;;;;;4.33;3.93;;;21.90;68.00;21.50;96564.00;;;;6075243;23;20641;-82
2023/06/07 07:29:48;;;;;;;4.33;4.03;;;22.00;67.90;21.70;96570.00;;;;6099930;23;20171;-82
2023/06/07 07:32:15;;;;;;;4.23;3.93;;;22.10;67.70;21.80;96571.00;;;;6124297;23;20747;-82
2023/06/07 07:34:43;;;;;;;7.00;4.37;;;22.20;67.60;21.90;96573.00;;;;6123926;23;20516;-83
2023/06/07 07:37:10;;;;;;;4.50;4.20;;;22.40;67.20;22.00;96579.00;;;;6099363;23;20661;-82
2023/06/07 07:39:37;;;;;;;4.03;3.77;;;22.50;66.70;22.10;96579.00;;;;6075366;23;20253;-83
2023/06/07 07:42:08;;;;;;;4.10;3.80;;;22.60;66.40;22.20;96583.00;;;;6124681;23;20167;-84
2023/06/07 07:44:36;;;;;;;4.53;4.23;;;22.70;66.20;22.40;96580.00;;;;6126399;23;20233;-84
2023/06/07 07:47:06;;;;;;;4.40;4.10;;;22.80;66.20;22.50;96587.00;;;;6099824;23;20668;-83
2023/06/07 07:49:33;;;;;;;4.73;4.13;;;22.90;66.20;22.60;96582.00;;;;6099861;23;20658;-82
2023/06/07 07:52:01;;;;;;;3.53;3.33;;;23.10;66.00;22.70;96587.00;;;;6124763;23;20184;-83
2023/06/07 07:54:29;;;;;;;3.60;3.40;;;23.20;65.40;22.80;96585.00;;;;6123774;23;20590;-83
2023/06/07 07:56:56;;;;;;;3.93;3.73;;;23.30;64.90;22.90;96579.00;;;;6123502;23;20175;-82
2023/06/07 07:59:25;;;;;;;4.57;4.17;;;23.40;64.50;23.00;96580.00;;;;6123407;23;20725;-83
2023/06/07 08:01:54;;;;;;;3.53;3.33;;;23.50;63.90;23.10;96577.00;;;;6098871;23;20175;-82
2023/06/07 08:04:21;;;;;;;3.97;3.77;;;23.60;64.00;23.20;96575.00;;;;6125526;23;20534;-83
2023/06/07 08:06:48;;;;;;;3.33;3.13;;;23.70;63.90;23.30;96578.00;;;;6125759;23;20270;-82
2023/06/07 08:09:16;;;;;;;3.37;3.07;;;23.80;63.80;23.40;96577.00;;;;6125344;23;20169;-83
2023/06/07 08:11:43;;;;;;;3.30;3.00;;;23.90;63.70;23.50;96570.00;;;;6126388;23;20561;-82
2023/06/07 08:14:10;;;;;;;3.40;3.07;;;24.00;63.40;23.70;96572.00;;;;6125470;23;20528;-83
2023/06/07 08:16:46;;;;;;;3.80;3.50;;;24.10;63.10;23.90;96578.00;;;;6125830;23;20704;-83
2023/06/07 08:19:13;;;;;;;4.50;4.20;;;24.30;62.80;24.10;96575.00;;;;6125880;23;20181;-83
2023/06/07 08:21:43;;;;;;;4.43;4.13;;;24.40;62.80;24.30;96571.00;;;;6126739;23;20254;-83
2023/06/07 08:24:12;;;;;;;4.57;4.17;;;24.60;62.00;24.40;96574.00;;;;6125113;23;20194;-83
2023/06/07 08:26:39;;;;;;;4.87;4.47;;;24.70;61.30;24.40;96571.00;;;;6097011;23;20202;-83
2023/06/07 08:29:06;;;;;;;4.67;4.23;;;24.80;60.70;24.50;96576.00;;;;6124326;23;20930;-83
2023/06/07 08:31:35;;;;;;;4.33;4.03;;;24.90;60.40;24.50;96576.00;;;;6126102;23;20205;-83
2023/06/07 08:34:04;;;;;;;4.57;4.13;;;25.00;60.20;24.50;96572.00;;;;6124923;23;20187;-83
2023/06/07 08:36:31;;;;;;;5.37;4.97;;;25.00;60.00;24.50;96583.00;;;;6126177;23;20179;-83
2023/06/07 08:38:58;;;;;;;4.60;4.30;;;25.10;59.90;24.60;96581.00;;;;6098055;23;20558;-83
2023/06/07 08:41:28;;;;;;;4.50;4.10;;;25.10;59.70;24.60;96580.00;;;;6100156;23;20175;-83
2023/06/07 08:43:55;;;;;;;4.47;4.07;;;25.10;59.70;24.60;96582.00;;;;6123601;23;20269;-83
2023/06/07 08:46:24;;;;;;;4.57;4.27;;;25.10;59.50;24.70;96580.00;;;;6124013;23;20234;-83
2023/06/07 08:48:55;;;;;;;5.00;4.63;;;25.20;59.60;24.70;96583.00;;;;6123681;23;20179;-81
2023/06/07 08:51:27;;;;;;;4.37;4.07;;;25.20;59.60;24.90;96582.00;;;;6123289;23;20225;-83
2023/06/07 08:54:00;;;;;;;4.10;3.80;;;25.30;59.30;25.00;96584.00;;;;6123541;23;20749;-83
2023/06/07 08:56:31;;;;;;;10.97;4.53;;;25.40;59.40;25.10;96578.00;;;;6123396;23;20253;-83
2023/06/07 08:58:59;;;;;;;5.27;4.87;;;25.50;58.90;25.30;96586.00;;;;6125268;23;20175;-83
2023/06/07 09:01:34;;;;;;;4.63;4.23;;;25.60;58.60;25.40;96582.00;;;;6100053;23;20481;-83
2023/06/07 09:04:02;;;;;;;4.53;4.13;;;25.80;58.20;25.40;96584.00;;;;6125250;23;20190;-83
2023/06/07 09:06:34;;;;;;;4.10;3.80;;;25.80;58.00;25.50;96582.00;;;;6124799;23;20273;-83
2023/06/07 09:09:02;;;;;;;4.73;4.27;;;25.90;57.70;25.60;96584.00;;;;6101925;23;20175;-83
2023/06/07 09:11:30;;;;;;;3.80;3.53;;;26.00;57.80;25.70;96585.00;;;;6114311;23;20202;-83
2023/06/07 09:13:58;;;;;;;4.47;4.10;;;26.10;57.50;25.80;96575.00;;;;6102042;23;20738;-83
2023/06/07 09:16:25;;;;;;;4.07;3.77;;;26.20;57.30;25.90;96575.00;;;;6125463;23;20181;-83
2023/06/07 09:18:55;;;;;;;3.67;3.37;;;26.30;57.00;26.10;96575.00;;;;6099345;23;20171;-83
2023/06/07 09:21:26;;;;;;;3.70;3.40;;;26.40;56.80;26.20;96585.00;;;;6125348;23;20194;-83
2023/06/07 09:23:58;;;;;;;4.23;3.87;;;26.60;56.80;26.30;96580.00;;;;6098901;23;20753;-83
2023/06/07 09:26:38;;;;;;;4.13;3.63;;;26.70;56.40;26.30;96580.00;;;;6125108;23;20179;-82
2023/06/07 09:29:06;;;;;;;4.30;3.90;;;26.80;56.00;26.50;96587.00;;;;6125408;23;20167;-83
2023/06/07 09:31:33;;;;;;;3.43;3.17;;;26.90;56.40;26.60;96588.00;;;;6125461;23;20175;-83
2023/06/07 09:34:21;;;;;;;3.50;3.30;;;27.10;55.70;26.70;96581.00;;;;6125092;23;20650;-82
2023/06/07 09:36:53;;;;;;;3.50;3.30;;;27.20;54.40;26.70;96580.00;;;;6099568;23;20521;-83
2023/06/07 09:39:24;;;;;;;3.57;3.37;;;27.30;54.40;26.70;96585.00;;;;6099956;23;20170;-84
2023/06/07 09:41:52;;;;;;;4.10;3.07;;;27.30;54.10;26.70;96590.00;;;;6129465;23;20233;-83
2023/06/07 09:44:24;;;;;;;3.40;3.10;;;27.40;54.20;26.80;96587.00;;;;6137581;23;20214;-83
2023/06/07 09:46:52;;;;;;;3.50;3.30;;;27.40;53.80;26.90;96591.00;;;;6131673;23;20187;-83
2023/06/07 09:49:31;;;;;;;3.47;3.20;;;27.50;53.80;27.00;96587.00;;;;6130024;23;20166;-83
2023/06/07 09:51:59;;;;;;;3.43;3.13;;;27.60;53.10;27.10;96590.00;;;;6129377;23;20698;-83
2023/06/07 09:54:42;;;;;;;3.13;2.93;;;27.70;53.70;27.10;96588.00;;;;6126885;23;20729;-84
2023/06/07 09:57:11;;;;;;;2.88;2.67;;;27.80;53.10;27.30;96585.00;;;;6125192;23;20163;-83
2023/06/07 09:59:39;;;;;;;3.17;2.97;;;27.90;53.70;27.40;96585.00;;;;6099811;23;20171;-82
2023/06/07 10:02:25;;;;;;;3.30;3.10;;;28.10;54.00;27.40;96580.00;;;;6125621;23;20171;-84
2023/06/07 10:04:55;;;;;;;2.80;2.60;;;28.20;52.00;27.50;96581.00;;;;6125065;23;20365;-84
2023/06/07 10:07:24;;;;;;;3.45;3.17;;;28.30;52.20;27.60;96584.00;;;;6075996;23;20220;-83
2023/06/07 10:09:57;;;;;;;3.20;3.00;;;28.40;51.70;27.70;96583.00;;;;6123941;23;20186;-82
2023/06/07 10:12:29;;;;;;;2.78;2.60;;;28.50;51.10;27.80;96581.00;;;;6123615;23;20171;-83
2023/06/07 10:15:02;;;;;;;2.88;2.63;;;28.60;51.40;27.90;96577.00;;;;6098956;23;20195;-83
2023/06/07 10:17:40;;;;;;;3.10;2.90;;;28.70;51.70;27.90;96581.00;;;;6052069;23;20522;-83
2023/06/07 10:20:13;;;;;;;3.17;2.88;;;28.80;51.30;28.00;96573.00;;;;6076190;23;20170;-83
2023/06/07 10:22:45;;;;;;;3.15;2.90;;;28.90;50.90;28.10;96576.00;;;;6099409;23;20186;-83
2023/06/07 10:25:20;;;;;;;2.55;2.42;;;28.90;50.80;28.30;96581.00;;;;6125030;23;20302;-84
2023/06/07 10:28:01;;;;;;;2.85;2.67;;;29.00;51.20;28.40;96567.00;;;;6123424;23;20653;-81
2023/06/07 10:30:33;;;;;;;3.75;2.92;;;29.10;51.30;28.60;96569.00;;;;6097724;23;20230;-82
2023/06/07 10:33:03;;;;;;;3.33;3.13;;;29.30;51.50;28.80;96576.00;;;;6098497;23;20178;-83
2023/06/07 10:35:31;;;;;;;2.63;2.50;;;29.40;51.00;29.00;96575.00;;;;6096936;23;20171;-81
2023/06/07 10:37:59;;;;;;;3.03;2.83;;;29.60;51.00;29.20;96570.00;;;;6121903;23;20167;-82
2023/06/07 10:40:28;;;;;;;3.10;2.80;;;29.70;50.80;29.40;96573.00;;;;6122419;23;20194;-83
2023/06/07 10:42:58;;;;;;;3.15;2.95;;;29.90;50.30;29.50;96574.00;;;;6122034;23;20221;-82
2023/06/07 10:45:25;;;;;;;3.97;2.88;;;30.10;49.40;29.70;96571.00;;;;6098147;23;20212;-84
2023/06/07 10:47:53;;;;;;;2.63;2.42;;;30.20;49.40;29.80;96560.00;;;;6096782;23;20237;-83
2023/06/07 10:50:49;;;;;;;3.00;2.80;;;30.30;49.40;30.00;96565.00;;;;6123540;23;20686;-83
2023/06/07 10:53:16;;;;;;;3.00;2.80;;;30.40;48.70;30.10;96560.00;;;;6122517;23;20777;-84
2023/06/07 10:55:45;;;;;;;2.88;2.67;;;30.50;49.00;30.10;96566.00;;;;6123729;23;20226;-84
2023/06/07 10:58:29;;;;;;;3.90;2.70;;;30.60;48.60;30.10;96563.00;;;;6123259;23;20175;-85
2023/06/07 11:00:58;;;;;;;2.88;2.67;;;30.60;47.30;30.10;96571.00;;;;6124320;23;20176;-84
2023/06/07 11:03:41;;;;;;;3.05;2.70;;;30.60;47.70;30.00;96568.00;;;;6121917;23;20229;-84